Warning: Javascript must be enabled to use all the features on this page!


Page Loading - Please Wait...

Click to hideNews Bulletins

Peak Streamflow for the Nation

USGS 06911000 MARAIS DES CYGNES R AT MELVERN, KS

Osage County, Kansas
Hydrologic Unit Code 10290101
Latitude  38°30'58", Longitude  95°41'46" NAD83
Drainage area 351  square miles
Contributing drainage area 351  square miles
Gage datum 942.00 feet above NAVD88
Output formats
Table
Graph
Tab-separated file
peakfq (watstore) format
Reselect output format
Water
Year
Date Gage
Height
(feet)
Stream-
flow
(cfs)
1940 1940-09-05 12.50 2,650
1941 1941-08-26 24.73 11,600
1942 1941-10-14 25.46 15,200
1943 1943-06-17 21.35 7,770
1944 1944-04-23 26.70 29,000
1945 1945-04-16 26.60 24,200
1946 1946-06-20 21.84 8,540
1947 1947-03-13 21.90 8,620
1948 1948-07-21 25.60 19,400
1949 1949-05-28 23.40 10,000
1950 1950-08-13 25.50 16,700
1951 1951-07-11 30.80 68,500
1952 1952-03-10 18.10 5,380
1953 1953-05-19 5.83 142
1954 1954-06-02 11.00 1,630
1955 1955-08-06 9.80 1,210
1956 1956-05-09 6.80 310
1957 1957-05-30 24.40 8,800
1958 1958-07-17 21.13 4,880
1959 1958-11-17 16.78 3,050
1960 1960-08-26 21.53 7,330
1961 1961-05-23 25.60 16,400
1962 1961-11-02 22.21 7,990
1963 1962-10-07 12.44 2,200
1964 1964-04-23 17.98 3,910
1965 1965-06-05 28.09 20,800
1966 1966-04-12 18.97 4,140
1967 1967-06-22 26.90 11,100
1968 1967-10-08 27.00 11,500
1969 1969-06-27 28.49 19,400
1970 1970-06-03 24.80 7,440
1971 1971-02-27 14.93 2,600
1972 1972-05-01 18.57 4,240
1973 1973-02-08 17.32 3,6706
1974 1973-10-20 13.66 2,2106
2014 2014-06-18 5.63 5516
2015 2015-06-10 11.655 2,5402,6
2016 2016-06-02 11.695 2,5106
2017 2017-04-17 8.482 1,3706
2018 2018-08-30 2.572 49.06
2019 2019-06-12 14.25 3,4906
2020 2020-05-22 8.71 1,4906
2021 2021-05-26 12.96 3,0406
2022 2022-06-05   2,3306
2023 2022-10-28   61.66
?
  Peak Gage-Height Qualification Codes.
?
  Peak Streamflow Qualification Codes.